createdAt,value
2022-09-04T00:02:24.958Z,18.8
2022-09-04T00:07:31.353Z,18.7
2022-09-04T00:12:27.737Z,18.6
2022-09-04T00:18:28.227Z,18.6
2022-09-04T00:22:40.508Z,18.5
2022-09-04T00:28:16.949Z,18.4
2022-09-04T00:33:03.376Z,18.4
2022-09-04T00:39:22.023Z,18.3
2022-09-04T00:43:36.548Z,18.2
2022-09-04T00:48:26.940Z,18.2
2022-09-04T00:53:29.282Z,18.1
2022-09-04T00:58:35.654Z,18.0
2022-09-04T01:03:42.031Z,18.0
2022-09-04T01:08:48.429Z,17.9
2022-09-04T01:14:18.861Z,17.8
2022-09-04T01:19:25.260Z,17.8
2022-09-04T01:23:57.717Z,17.7
2022-09-04T01:29:14.230Z,17.6
2022-09-04T01:34:20.719Z,17.6
2022-09-04T01:39:27.155Z,17.5
2022-09-04T01:44:33.503Z,17.5
2022-09-04T01:49:39.848Z,17.4
2022-09-04T01:59:53.831Z,17.3
2022-09-04T02:04:59.028Z,17.3
2022-09-04T02:10:05.519Z,17.2
2022-09-04T02:16:24.072Z,17.1
2022-09-04T02:20:38.324Z,17.1
2022-09-04T02:25:24.660Z,17.1
2022-09-04T02:30:55.096Z,17.0
2022-09-04T02:35:37.433Z,16.9
2022-09-04T02:40:43.939Z,16.9
2022-09-04T02:45:50.411Z,16.8
2022-09-04T02:50:57.019Z,16.8
2022-09-04T02:56:23.567Z,16.7
2022-09-04T03:01:10.035Z,16.6
2022-09-04T03:06:16.261Z,16.6
2022-09-04T03:11:22.633Z,16.6
2022-09-04T03:16:32.681Z,16.5
2022-09-04T03:31:51.846Z,16.3
2022-09-04T03:42:04.643Z,16.2
2022-09-04T03:47:14.398Z,16.2
2022-09-04T03:52:20.785Z,16.1
2022-09-04T03:57:27.162Z,16.0
2022-09-04T04:02:33.620Z,15.9
2022-09-04T04:07:59.995Z,15.9
2022-09-04T04:12:46.314Z,15.8
2022-09-04T04:34:19.515Z,15.7
2022-09-04T04:39:30.512Z,15.6
2022-09-04T04:44:12.241Z,15.5
2022-09-04T04:49:38.651Z,15.5
2022-09-04T05:05:49.894Z,15.4
2022-09-04T05:15:09.540Z,15.3
2022-09-04T05:20:00.909Z,15.3
2022-09-04T05:26:03.405Z,15.2
2022-09-04T05:30:29.698Z,15.2
2022-09-04T05:35:36.064Z,15.2
2022-09-04T05:40:22.414Z,15.2
2022-09-04T05:45:28.790Z,15.2
2022-09-04T05:50:35.171Z,15.2
2022-09-04T05:55:41.541Z,15.2
2022-09-04T06:05:54.282Z,15.3
2022-09-04T06:09:51.490Z,15.3
2022-09-04T06:11:23.683Z,15.4
2022-09-04T06:16:51.118Z,15.4
2022-09-04T06:21:03.446Z,15.5
2022-09-04T06:31:46.323Z,15.6
2022-09-04T06:33:28.513Z,15.5
2022-09-04T06:42:55.211Z,15.8
2022-09-04T06:46:35.524Z,15.9
2022-09-04T06:53:06.033Z,16.2
2022-09-04T07:03:20.986Z,16.4
2022-09-04T07:08:17.441Z,16.5
2022-09-04T07:13:53.923Z,16.6
2022-09-04T07:18:44.301Z,16.8
2022-09-04T07:28:43.024Z,17.2
2022-09-04T07:34:03.453Z,17.5
2022-09-04T07:39:05.805Z,17.9
2022-09-04T07:44:12.191Z,18.7
2022-09-04T07:49:18.576Z,19.8
2022-09-04T07:54:24.958Z,20.9
2022-09-04T07:59:31.401Z,22.2
2022-09-04T08:04:37.984Z,23.3
2022-09-04T08:09:44.382Z,24.4
2022-09-04T08:14:50.887Z,25.3
2022-09-04T08:19:47.256Z,26.0
2022-09-04T08:25:17.688Z,26.7
2022-09-04T08:30:13.057Z,27.3
2022-09-04T08:38:29.464Z,29.0
2022-09-04T08:42:46.730Z,29.9
2022-09-04T08:47:55.003Z,29.9
2022-09-04T08:53:03.882Z,30.6
2022-09-04T08:58:07.784Z,31.1
2022-09-04T09:03:34.954Z,31.8
2022-09-04T09:08:49.944Z,32.2
2022-09-04T09:18:24.773Z,32.9
2022-09-04T09:24:41.209Z,33.5
2022-09-04T09:28:47.704Z,34.0
2022-09-04T09:33:54.170Z,34.4
2022-09-04T09:39:00.556Z,34.9
2022-09-04T09:44:06.922Z,35.3
2022-09-04T09:55:14.868Z,36.3
2022-09-04T10:00:12.236Z,36.7
2022-09-04T10:05:28.707Z,37.1
2022-09-04T10:10:35.088Z,37.3
2022-09-04T10:15:41.484Z,37.8
2022-09-04T10:21:01.875Z,38.1
2022-09-04T10:25:58.239Z,38.4
2022-09-04T10:31:00.729Z,38.6
2022-09-04T10:36:06.969Z,39.0
2022-09-04T10:41:28.477Z,39.2
2022-09-04T10:46:13.794Z,39.5
2022-09-04T10:51:27.232Z,39.8
2022-09-04T10:56:33.614Z,40.1
2022-09-04T11:01:39.989Z,40.3
2022-09-04T11:07:06.411Z,40.5
2022-09-04T11:11:52.841Z,40.7
2022-09-04T11:17:19.781Z,40.9
2022-09-04T11:22:05.598Z,41.1
2022-09-04T11:27:11.992Z,41.2
2022-09-04T11:32:08.350Z,41.1
2022-09-04T11:37:24.812Z,40.8
2022-09-04T11:43:15.272Z,40.6
2022-09-04T11:47:37.525Z,40.6
2022-09-04T11:52:44.018Z,40.6
2022-09-04T11:57:50.404Z,40.7
2022-09-04T12:02:56.771Z,40.8
2022-09-04T12:07:53.132Z,40.8
2022-09-04T12:13:15.178Z,40.7
2022-09-04T12:18:05.889Z,40.6
2022-09-04T12:23:12.329Z,40.3
2022-09-04T12:28:32.731Z,40.1
2022-09-04T12:33:35.125Z,39.8
2022-09-04T12:38:41.500Z,39.6
2022-09-04T12:43:47.903Z,39.4
2022-09-04T12:48:54.255Z,39.2
2022-09-04T12:54:00.763Z,39.0
2022-09-04T12:59:21.268Z,38.8
2022-09-04T13:04:13.612Z,38.6
2022-09-04T13:09:19.989Z,38.5
2022-09-04T13:14:26.373Z,38.4
2022-09-04T13:24:44.089Z,38.3
2022-09-04T13:29:53.216Z,38.3
2022-09-04T13:40:04.776Z,38.4
2022-09-04T13:40:32.761Z,38.3
2022-09-04T13:45:32.734Z,38.5
2022-09-04T14:00:36.068Z,38.5
2022-09-04T14:00:38.124Z,38.5
2022-09-04T14:05:46.363Z,38.5
2022-09-04T14:14:21.708Z,38.4
2022-09-04T14:16:29.839Z,38.2
2022-09-04T14:22:15.469Z,38.0
2022-09-04T14:32:25.383Z,37.8
2022-09-04T14:37:31.775Z,37.6
2022-09-04T14:42:38.245Z,37.4
2022-09-04T14:47:44.638Z,37.1
2022-09-04T14:52:51.002Z,36.8
2022-09-04T14:57:57.394Z,36.4
2022-09-04T15:03:03.885Z,36.1
2022-09-04T15:08:00.240Z,35.8
2022-09-04T15:13:16.756Z,35.5
2022-09-04T15:18:23.132Z,35.2
2022-09-04T15:23:29.558Z,34.9
2022-09-04T15:29:10.012Z,34.2
2022-09-04T15:34:21.423Z,34.2
2022-09-04T15:39:18.578Z,33.9
2022-09-04T15:44:20.474Z,33.6
2022-09-04T15:50:36.995Z,33.4
2022-09-04T15:54:47.269Z,33.1
2022-09-04T15:59:49.641Z,32.8
2022-09-04T16:04:56.026Z,32.6
2022-09-04T16:10:02.403Z,32.4
2022-09-04T16:15:08.782Z,32.2
2022-09-04T16:20:05.163Z,32.0
2022-09-04T16:36:35.705Z,31.5
2022-09-04T16:41:33.074Z,31.5
2022-09-04T16:47:09.525Z,31.5
2022-09-04T16:51:45.881Z,31.3
2022-09-04T16:57:12.398Z,31.0
2022-09-04T17:02:08.851Z,30.8
2022-09-04T17:07:15.024Z,30.7
2022-09-04T17:28:56.486Z,30.1
2022-09-04T17:29:14.175Z,30.0
2022-09-04T17:40:25.058Z,29.8
2022-09-04T17:40:48.046Z,29.6
2022-09-04T17:43:21.808Z,29.5
2022-09-04T17:48:06.177Z,29.3
2022-09-04T17:53:33.606Z,29.2
2022-09-04T17:58:19.047Z,29.0
2022-09-04T18:03:25.431Z,28.9
2022-09-04T18:08:21.992Z,28.7
2022-09-04T18:13:38.699Z,28.5
2022-09-04T18:18:44.658Z,28.3
2022-09-04T18:23:51.874Z,28.2
2022-09-04T18:28:57.418Z,28.0
2022-09-04T18:37:17.230Z,27.8
2022-09-04T18:39:10.230Z,27.6
2022-09-04T18:59:35.757Z,26.9
2022-09-04T19:04:42.136Z,26.8
2022-09-04T19:09:55.868Z,26.6
2022-09-04T19:14:54.904Z,26.4
2022-09-04T19:19:51.288Z,26.2
2022-09-04T19:25:07.706Z,26.1
2022-09-04T19:30:34.229Z,25.9
2022-09-04T19:35:20.650Z,25.8
2022-09-04T19:46:01.737Z,25.7
2022-09-04T19:46:25.833Z,25.6
2022-09-04T19:53:30.183Z,25.5
2022-09-04T19:55:46.276Z,25.4
2022-09-04T20:00:52.693Z,25.3
2022-09-04T20:06:03.438Z,25.2
2022-09-04T20:16:11.856Z,25.0
2022-09-04T20:26:24.702Z,24.8
2022-09-04T20:31:36.716Z,24.7
2022-09-04T20:36:37.589Z,24.6
2022-09-04T20:41:43.995Z,24.5
2022-09-04T20:52:45.158Z,24.4
2022-09-04T20:52:49.774Z,24.3
2022-09-04T21:00:21.544Z,24.2
2022-09-04T21:03:37.821Z,24.1
2022-09-04T21:07:15.911Z,24.0
2022-09-04T21:12:22.369Z,23.9
2022-09-04T21:17:48.826Z,23.8
2022-09-04T21:23:51.298Z,23.7
2022-09-04T21:27:41.523Z,23.6
2022-09-04T21:33:35.819Z,23.5
2022-09-04T21:37:54.299Z,23.4
2022-09-04T21:43:00.793Z,23.3
2022-09-04T21:48:07.165Z,23.2
2022-09-04T21:53:33.588Z,23.1
2022-09-04T22:02:42.743Z,23.0
2022-09-04T22:03:40.470Z,23.0
2022-09-04T22:13:49.993Z,22.8
2022-09-04T22:18:45.426Z,22.7
2022-09-04T22:23:51.875Z,22.5
2022-09-04T22:28:58.359Z,22.4
2022-09-04T22:34:16.054Z,22.3
2022-09-04T22:39:11.242Z,22.2
2022-09-04T22:44:17.640Z,22.1
2022-09-04T22:49:24.046Z,22.0
2022-09-04T22:54:30.418Z,21.9
2022-09-04T22:59:36.806Z,21.8
2022-09-04T23:04:43.734Z,21.6
2022-09-04T23:13:56.457Z,21.6
2022-09-04T23:26:33.668Z,21.4
2022-09-04T23:30:15.143Z,21.2
2022-09-04T23:35:45.591Z,21.1
2022-09-04T23:40:27.904Z,21.0
2022-09-04T23:46:01.938Z,20.9
2022-09-04T23:50:40.831Z,20.8
2022-09-04T23:55:48.587Z,20.8
